createdAt,value
2023-03-08T00:00:54.169Z,947.7
2023-03-08T00:02:00.325Z,947.8
2023-03-08T00:03:06.461Z,947.8
2023-03-08T00:04:12.606Z,947.8
2023-03-08T00:05:17.797Z,947.8
2023-03-08T00:06:23.908Z,947.8
2023-03-08T00:07:30.050Z,947.8
2023-03-08T00:10:48.570Z,947.8
2023-03-08T00:11:53.690Z,947.9
2023-03-08T00:12:58.809Z,947.9
2023-03-08T00:14:04.954Z,947.8
2023-03-08T00:15:11.111Z,947.8
2023-03-08T00:16:17.237Z,947.8
2023-03-08T00:17:23.387Z,947.8
2023-03-08T00:18:29.517Z,947.8
2023-03-08T00:19:35.667Z,947.8
2023-03-08T00:20:41.820Z,947.8
2023-03-08T00:21:47.967Z,947.7
2023-03-08T00:22:54.128Z,947.7
2023-03-08T00:23:59.332Z,947.7
2023-03-08T00:26:11.565Z,947.7
2023-03-08T00:27:16.728Z,947.7
2023-03-08T00:28:22.858Z,947.8
2023-03-08T00:29:29.003Z,947.8
2023-03-08T00:30:35.176Z,947.8
2023-03-08T00:31:41.292Z,947.7
2023-03-08T00:32:47.445Z,947.7
2023-03-08T00:33:53.581Z,947.7
2023-03-08T00:34:59.720Z,947.7
2023-03-08T00:37:12.013Z,947.7
2023-03-08T00:38:18.147Z,947.6
2023-03-08T00:39:24.302Z,947.6
2023-03-08T00:40:30.456Z,947.6
2023-03-08T00:42:41.786Z,947.6
2023-03-08T00:43:46.920Z,947.5
2023-03-08T00:44:52.090Z,947.5
2023-03-08T00:45:58.208Z,947.5
2023-03-08T00:47:04.375Z,947.5
2023-03-08T00:48:10.508Z,947.5
2023-03-08T00:49:16.648Z,947.5
2023-03-08T00:50:22.807Z,947.5
2023-03-08T00:51:28.969Z,947.4
2023-03-08T00:52:35.082Z,947.4
2023-03-08T00:53:40.252Z,947.4
2023-03-08T00:54:46.402Z,947.4
2023-03-08T00:55:52.541Z,947.4
2023-03-08T00:59:10.042Z,947.4
2023-03-08T01:00:15.171Z,947.4
2023-03-08T01:01:20.353Z,947.4
2023-03-08T01:02:26.468Z,947.4
2023-03-08T01:03:32.662Z,947.4
2023-03-08T01:04:38.750Z,947.4
2023-03-08T01:05:44.908Z,947.3
2023-03-08T01:06:51.152Z,947.3
2023-03-08T01:07:57.187Z,947.3
2023-03-08T01:09:03.318Z,947.2
2023-03-08T01:11:15.637Z,947.1
2023-03-08T01:12:21.753Z,947.1
2023-03-08T01:13:27.899Z,947.1
2023-03-08T01:15:40.195Z,947
2023-03-08T01:16:45.359Z,947
2023-03-08T01:17:51.486Z,947
2023-03-08T01:20:03.773Z,946.9
2023-03-08T01:21:09.940Z,946.9
2023-03-08T01:22:16.077Z,946.8
2023-03-08T01:23:22.209Z,946.8
2023-03-08T01:24:28.356Z,946.8
2023-03-08T01:25:34.508Z,946.8
2023-03-08T01:26:40.640Z,946.7
2023-03-08T01:27:46.772Z,946.7
2023-03-08T01:28:52.936Z,946.7
2023-03-08T01:29:59.086Z,946.6
2023-03-08T01:32:10.364Z,946.6
2023-03-08T01:33:16.514Z,946.6
2023-03-08T01:35:28.861Z,946.6
2023-03-08T01:36:34.944Z,946.6
2023-03-08T01:37:41.084Z,946.6
2023-03-08T01:38:47.233Z,946.6
2023-03-08T01:39:53.373Z,946.5
2023-03-08T01:40:59.515Z,946.5
2023-03-08T01:42:05.716Z,946.5
2023-03-08T01:43:11.799Z,946.5
2023-03-08T01:44:17.950Z,946.5
2023-03-08T01:45:23.117Z,946.4
2023-03-08T01:48:41.543Z,946.3
2023-03-08T01:49:47.764Z,946.3
2023-03-08T01:50:53.840Z,946.3
2023-03-08T01:51:59.960Z,946.3
2023-03-08T01:53:06.111Z,946.3
2023-03-08T01:54:12.266Z,946.3
2023-03-08T01:55:18.398Z,946.3
2023-03-08T01:56:24.543Z,946.3
2023-03-08T01:57:30.686Z,946.3
2023-03-08T01:58:36.831Z,946.3
2023-03-08T01:59:42.002Z,946.3
2023-03-08T02:00:48.131Z,946.3
2023-03-08T02:01:54.278Z,946.3
2023-03-08T02:03:00.417Z,946.3
2023-03-08T02:05:12.704Z,946.3
2023-03-08T02:06:18.847Z,946.3
2023-03-08T02:07:24.992Z,946.3
2023-03-08T02:08:31.125Z,946.3
2023-03-08T02:09:37.280Z,946.3
2023-03-08T02:10:43.431Z,946.2
2023-03-08T02:11:48.608Z,946.2
2023-03-08T02:12:53.742Z,946.2
2023-03-08T02:13:59.892Z,946.2
2023-03-08T02:15:06.040Z,946.2
2023-03-08T02:16:12.208Z,946.2
2023-03-08T02:17:18.328Z,946.1
2023-03-08T02:18:24.476Z,946.1
2023-03-08T02:19:30.613Z,946.1
2023-03-08T02:21:42.923Z,946.1
2023-03-08T02:22:49.168Z,946.1
2023-03-08T02:23:55.301Z,946.1
2023-03-08T02:25:01.446Z,946.1
2023-03-08T02:27:13.748Z,946
2023-03-08T02:28:18.902Z,946
2023-03-08T02:29:24.095Z,946
2023-03-08T02:30:30.209Z,946
2023-03-08T02:31:36.378Z,945.9
2023-03-08T02:32:42.620Z,945.9
2023-03-08T02:33:48.638Z,945.9
2023-03-08T02:36:00.982Z,945.9
2023-03-08T02:38:13.228Z,945.9
2023-03-08T02:39:19.364Z,945.8
2023-03-08T02:40:25.506Z,945.8
2023-03-08T02:41:31.697Z,945.8
2023-03-08T02:42:37.794Z,945.7
2023-03-08T02:43:43.035Z,945.7
2023-03-08T02:44:49.088Z,945.6
2023-03-08T02:45:55.243Z,945.6
2023-03-08T02:47:01.382Z,945.6
2023-03-08T02:48:07.533Z,945.5
2023-03-08T02:49:13.663Z,945.5
2023-03-08T02:50:19.800Z,945.5
2023-03-08T02:51:25.957Z,945.5
2023-03-08T02:52:32.103Z,945.4
2023-03-08T02:54:44.381Z,945.4
2023-03-08T02:55:50.523Z,945.4
2023-03-08T02:56:56.670Z,945.4
2023-03-08T02:58:02.809Z,945.4
2023-03-08T02:59:08.053Z,945.3
2023-03-08T03:00:14.160Z,945.3
2023-03-08T03:01:19.291Z,945.3
2023-03-08T03:02:25.550Z,945.3
2023-03-08T03:03:31.684Z,945.3
2023-03-08T03:04:37.845Z,945.3
2023-03-08T03:05:43.977Z,945.2
2023-03-08T03:06:50.189Z,945.2
2023-03-08T03:07:56.285Z,945.2
2023-03-08T03:09:02.414Z,945.2
2023-03-08T03:11:14.698Z,945.2
2023-03-08T03:13:26.984Z,945.2
2023-03-08T03:14:33.123Z,945.1
2023-03-08T03:15:38.300Z,945.2
2023-03-08T03:16:43.452Z,945.2
2023-03-08T03:17:49.600Z,945.2
2023-03-08T03:18:55.736Z,945.2
2023-03-08T03:20:01.889Z,945.2
2023-03-08T03:21:08.043Z,945.2
2023-03-08T03:22:14.172Z,945.2
2023-03-08T03:24:26.477Z,945.2
2023-03-08T03:25:32.624Z,945.2
2023-03-08T03:27:44.900Z,945.1
2023-03-08T03:28:51.051Z,945.1
2023-03-08T03:29:57.174Z,945.1
2023-03-08T03:31:03.323Z,945
2023-03-08T03:32:08.487Z,945.1
2023-03-08T03:33:14.625Z,945.1
2023-03-08T03:34:20.767Z,945
2023-03-08T03:35:26.968Z,945
2023-03-08T03:36:33.044Z,945
2023-03-08T03:37:39.190Z,945
2023-03-08T03:38:45.353Z,945
2023-03-08T03:39:51.488Z,945
2023-03-08T03:42:03.766Z,945
2023-03-08T03:44:16.056Z,944.9
2023-03-08T03:45:22.255Z,944.9
2023-03-08T03:46:27.374Z,944.9
2023-03-08T03:47:33.521Z,944.8
2023-03-08T03:48:39.649Z,944.8
2023-03-08T03:49:45.797Z,944.8
2023-03-08T03:50:51.938Z,944.8
2023-03-08T03:51:58.078Z,944.8
2023-03-08T03:53:04.230Z,944.7
2023-03-08T03:54:10.390Z,944.7
2023-03-08T03:55:16.519Z,944.7
2023-03-08T03:56:22.662Z,944.7
2023-03-08T03:58:34.947Z,944.7
2023-03-08T04:00:47.322Z,944.7
2023-03-08T04:01:52.387Z,944.7
2023-03-08T04:02:58.535Z,944.6
2023-03-08T04:04:04.689Z,944.6
2023-03-08T04:05:10.836Z,944.6
2023-03-08T04:06:16.970Z,944.6
2023-03-08T04:07:23.129Z,944.6
2023-03-08T04:08:29.260Z,944.6
2023-03-08T04:11:47.797Z,944.6
2023-03-08T04:12:53.836Z,944.5
2023-03-08T04:13:59.973Z,944.5
2023-03-08T04:15:06.125Z,944.5
2023-03-08T04:17:17.458Z,944.4
2023-03-08T04:18:23.564Z,944.4
2023-03-08T04:19:29.721Z,944.4
2023-03-08T04:20:35.858Z,944.4
2023-03-08T04:21:42.004Z,944.4
2023-03-08T04:22:48.142Z,944.4
2023-03-08T04:23:54.285Z,944.4
2023-03-08T04:25:00.432Z,944.4
2023-03-08T04:26:06.576Z,944.4
2023-03-08T04:27:12.712Z,944.4
2023-03-08T04:28:18.856Z,944.4
2023-03-08T04:29:25.005Z,944.3
2023-03-08T04:30:30.162Z,944.3
2023-03-08T04:31:36.302Z,944.3
2023-03-08T04:33:48.589Z,944.4
2023-03-08T04:35:59.903Z,944.3
2023-03-08T04:37:05.077Z,944.3
2023-03-08T04:38:11.207Z,944.4
2023-03-08T04:39:17.355Z,944.3
2023-03-08T04:40:23.543Z,944.3
2023-03-08T04:42:35.775Z,944.3
2023-03-08T04:43:41.931Z,944.3
2023-03-08T04:44:48.095Z,944.3
2023-03-08T04:45:54.218Z,944.3
2023-03-08T04:47:00.352Z,944.3
2023-03-08T04:48:06.526Z,944.2
2023-03-08T04:50:18.808Z,944.2
2023-03-08T04:51:23.943Z,944.2
2023-03-08T04:52:30.108Z,944.2
2023-03-08T04:53:36.233Z,944.2
2023-03-08T04:54:42.377Z,944.2
2023-03-08T04:55:48.526Z,944.2
2023-03-08T04:56:54.663Z,944.2
2023-03-08T04:58:00.814Z,944.2
2023-03-08T04:59:06.948Z,944.2
2023-03-08T05:00:13.106Z,944.1
2023-03-08T05:01:19.229Z,944.2
2023-03-08T05:02:25.387Z,944.2
2023-03-08T05:03:31.527Z,944.1
2023-03-08T05:04:37.665Z,944.1
2023-03-08T05:06:48.979Z,944
2023-03-08T05:07:54.146Z,944
2023-03-08T05:09:00.362Z,944
2023-03-08T05:10:06.425Z,944
2023-03-08T05:11:12.610Z,944
2023-03-08T05:12:18.719Z,944
2023-03-08T05:13:23.934Z,944
2023-03-08T05:14:29.160Z,944
2023-03-08T05:15:35.207Z,944
2023-03-08T05:16:41.429Z,943.9
2023-03-08T05:18:53.818Z,943.9
2023-03-08T05:19:59.840Z,943.9
2023-03-08T05:21:05.902Z,943.9
2023-03-08T05:23:18.201Z,943.8
2023-03-08T05:24:24.343Z,943.8
2023-03-08T05:25:30.484Z,943.8
2023-03-08T05:26:36.621Z,943.8
2023-03-08T05:27:41.796Z,943.8
2023-03-08T05:28:46.999Z,943.8
2023-03-08T05:30:59.240Z,943.8
2023-03-08T05:32:05.394Z,943.8
2023-03-08T05:33:11.535Z,943.9
2023-03-08T05:34:17.661Z,943.8
2023-03-08T05:35:23.819Z,943.8
2023-03-08T05:36:29.966Z,943.7
2023-03-08T05:37:36.098Z,943.7
2023-03-08T05:39:48.396Z,943.7
2023-03-08T05:40:54.543Z,943.7
2023-03-08T05:42:00.689Z,943.6
2023-03-08T05:43:06.822Z,943.6
2023-03-08T05:45:18.185Z,943.6
2023-03-08T05:46:24.268Z,943.6
2023-03-08T05:47:30.405Z,943.6
2023-03-08T05:48:36.582Z,943.5
2023-03-08T05:49:42.699Z,943.5
2023-03-08T05:50:48.830Z,943.5
2023-03-08T05:51:55.000Z,943.5
2023-03-08T05:53:01.123Z,943.5
2023-03-08T05:54:07.286Z,943.5
2023-03-08T05:56:19.551Z,943.5
2023-03-08T05:58:31.839Z,943.4
2023-03-08T05:59:37.001Z,943.4
2023-03-08T06:00:43.140Z,943.4
2023-03-08T06:01:49.291Z,943.4
2023-03-08T06:02:55.433Z,943.4
2023-03-08T06:04:01.576Z,943.5
2023-03-08T06:05:07.710Z,943.5
2023-03-08T06:06:13.862Z,943.4
2023-03-08T06:07:19.999Z,943.4
2023-03-08T06:08:26.140Z,943.4
2023-03-08T06:09:32.278Z,943.4
2023-03-08T06:10:38.433Z,943.4
2023-03-08T06:12:50.713Z,943.2
2023-03-08T06:13:55.897Z,943.2
2023-03-08T06:15:02.011Z,943.1
2023-03-08T06:16:08.172Z,943.1
2023-03-08T06:17:14.310Z,943.1
2023-03-08T06:18:20.445Z,943.1
2023-03-08T06:19:26.594Z,943.2
2023-03-08T06:20:32.735Z,943.2
2023-03-08T06:21:37.905Z,943.2
2023-03-08T06:22:43.080Z,943.1
2023-03-08T06:23:49.209Z,943.1
2023-03-08T06:24:55.366Z,943
2023-03-08T06:26:01.506Z,943
2023-03-08T06:27:07.633Z,943
2023-03-08T06:29:20.014Z,943.1
2023-03-08T06:30:26.071Z,943.1
2023-03-08T06:31:32.215Z,943.1
2023-03-08T06:32:38.351Z,943.1
2023-03-08T06:33:44.503Z,943.1
2023-03-08T06:34:50.657Z,943.2
2023-03-08T06:35:56.810Z,943.2
2023-03-08T06:37:01.957Z,943.1
2023-03-08T06:38:08.108Z,943.1
2023-03-08T06:39:14.296Z,943.1
2023-03-08T06:40:20.399Z,943.1
2023-03-08T06:41:26.526Z,943.2
2023-03-08T06:42:32.667Z,943.2
2023-03-08T06:43:38.818Z,943.2
2023-03-08T06:45:51.101Z,943.1
2023-03-08T06:46:57.251Z,943.1
2023-03-08T06:48:03.388Z,943.1
2023-03-08T06:49:09.540Z,943.1
2023-03-08T06:50:15.683Z,943.1
2023-03-08T06:51:20.848Z,943
2023-03-08T06:52:26.014Z,943.1
2023-03-08T06:53:31.188Z,943
2023-03-08T06:54:37.328Z,943
2023-03-08T06:56:49.594Z,943.1
2023-03-08T06:57:55.740Z,943
2023-03-08T06:59:01.991Z,943
2023-03-08T07:00:08.092Z,942.9
2023-03-08T07:02:20.367Z,943
2023-03-08T07:03:26.557Z,943
2023-03-08T07:04:32.676Z,943.1
2023-03-08T07:05:38.832Z,943
2023-03-08T07:06:44.161Z,943
2023-03-08T07:07:49.154Z,943
2023-03-08T07:08:55.279Z,942.9
2023-03-08T07:11:07.560Z,942.8
2023-03-08T07:12:13.708Z,942.8
2023-03-08T07:13:19.842Z,942.7
2023-03-08T07:14:26.296Z,942.7
2023-03-08T07:15:32.225Z,942.8
2023-03-08T07:16:38.275Z,942.9
2023-03-08T07:18:50.564Z,942.9
2023-03-08T07:19:56.697Z,942.9
2023-03-08T07:21:02.870Z,942.9
2023-03-08T07:22:08.055Z,942.9
2023-03-08T07:23:13.195Z,942.9
2023-03-08T07:24:19.334Z,942.9
2023-03-08T07:25:25.469Z,942.9
2023-03-08T07:26:31.618Z,942.7
2023-03-08T07:27:37.912Z,942.7
2023-03-08T07:28:43.902Z,942.8
2023-03-08T07:29:50.047Z,942.9
2023-03-08T07:30:56.242Z,943
2023-03-08T07:32:02.332Z,943
2023-03-08T07:33:08.508Z,943
2023-03-08T07:35:19.792Z,942.8
2023-03-08T07:36:24.954Z,942.8
2023-03-08T07:37:31.102Z,942.8
2023-03-08T07:38:37.239Z,942.9
2023-03-08T07:40:49.521Z,942.9
2023-03-08T07:43:01.806Z,942.9
2023-03-08T07:44:08.008Z,943
2023-03-08T07:45:14.114Z,943
2023-03-08T07:46:20.237Z,943
2023-03-08T07:47:26.379Z,943
2023-03-08T07:48:32.565Z,943
2023-03-08T07:49:38.699Z,943.1
2023-03-08T07:51:50.098Z,943
2023-03-08T07:52:56.302Z,943
2023-03-08T07:54:02.267Z,942.9
2023-03-08T07:55:08.558Z,943
2023-03-08T07:57:20.820Z,943
2023-03-08T07:58:27.032Z,942.9
2023-03-08T07:59:33.131Z,942.9
2023-03-08T08:00:39.278Z,942.9
2023-03-08T08:01:45.352Z,942.9
2023-03-08T08:02:51.597Z,942.9
2023-03-08T08:03:57.562Z,943
2023-03-08T08:05:02.779Z,942.9
2023-03-08T08:06:08.916Z,942.9
2023-03-08T08:08:21.209Z,942.8
2023-03-08T08:09:27.410Z,942.8
2023-03-08T08:10:33.590Z,942.8
2023-03-08T08:11:39.625Z,942.7
2023-03-08T08:12:45.716Z,942.6
2023-03-08T08:13:52.040Z,942.6
2023-03-08T08:14:58.026Z,942.7
2023-03-08T08:16:04.160Z,942.7
2023-03-08T08:17:10.289Z,942.7
2023-03-08T08:18:15.459Z,942.7
2023-03-08T08:19:21.598Z,942.7
2023-03-08T08:20:26.826Z,942.6
2023-03-08T08:21:31.921Z,942.7
2023-03-08T08:22:38.122Z,942.6
2023-03-08T08:25:56.535Z,942.6
2023-03-08T08:27:02.718Z,942.7
2023-03-08T08:28:08.916Z,942.6
2023-03-08T08:29:15.037Z,942.6
2023-03-08T08:30:21.074Z,942.6
2023-03-08T08:31:27.282Z,942.6
2023-03-08T08:32:33.360Z,942.6
2023-03-08T08:33:39.503Z,942.5
2023-03-08T08:34:44.737Z,942.5
2023-03-08T08:35:49.831Z,942.4
2023-03-08T08:36:56.034Z,942.4
2023-03-08T08:38:02.190Z,942.4
2023-03-08T08:39:08.280Z,942.4
2023-03-08T08:41:20.599Z,942.5
2023-03-08T08:42:26.696Z,942.5
2023-03-08T08:43:32.835Z,942.4
2023-03-08T08:44:38.985Z,942.5
2023-03-08T08:45:45.206Z,942.5
2023-03-08T08:46:51.258Z,942.6
2023-03-08T08:47:57.399Z,942.5
2023-03-08T08:49:03.548Z,942.5
2023-03-08T08:50:08.712Z,942.5
2023-03-08T08:51:14.918Z,942.4
2023-03-08T08:52:20.999Z,942.4
2023-03-08T08:53:27.183Z,942.5
2023-03-08T08:54:33.373Z,942.3
2023-03-08T08:55:39.435Z,942.4
2023-03-08T08:58:57.930Z,942.5
2023-03-08T09:00:04.023Z,942.5
2023-03-08T09:02:16.388Z,942.5
2023-03-08T09:03:22.519Z,942.5
2023-03-08T09:04:27.716Z,942.4
2023-03-08T09:05:33.792Z,942.5
2023-03-08T09:06:40.144Z,942.5
2023-03-08T09:07:46.149Z,942.5
2023-03-08T09:08:52.170Z,942.6
2023-03-08T09:09:58.311Z,942.5
2023-03-08T09:11:04.541Z,942.6
2023-03-08T09:12:10.779Z,942.5
2023-03-08T09:14:22.919Z,942.5
2023-03-08T09:15:29.087Z,942.5
2023-03-08T09:16:35.250Z,942.5
2023-03-08T09:17:41.352Z,942.5
2023-03-08T09:18:46.499Z,942.5
2023-03-08T09:19:52.718Z,942.5
2023-03-08T09:20:58.830Z,942.6
2023-03-08T09:22:04.895Z,942.6
2023-03-08T09:23:11.085Z,942.6
2023-03-08T09:24:17.210Z,942.6
2023-03-08T09:25:23.334Z,942.6
2023-03-08T09:26:28.499Z,942.5
2023-03-08T09:27:33.720Z,942.6
2023-03-08T09:28:39.805Z,942.6
2023-03-08T09:30:52.106Z,942.6
2023-03-08T09:31:58.236Z,942.6
2023-03-08T09:33:04.381Z,942.5
2023-03-08T09:34:10.529Z,942.5
2023-03-08T09:35:16.866Z,942.5
2023-03-08T09:36:22.808Z,942.5
2023-03-08T09:37:29.013Z,942.5
2023-03-08T09:38:35.099Z,942.6
2023-03-08T09:39:41.234Z,942.5
2023-03-08T09:40:47.445Z,942.5
2023-03-08T09:41:52.625Z,942.5
2023-03-08T09:42:58.749Z,942.6
2023-03-08T09:44:04.867Z,942.6
2023-03-08T09:45:11.061Z,942.5
2023-03-08T09:47:23.270Z,942.6
2023-03-08T09:48:28.593Z,942.7
2023-03-08T09:49:33.634Z,942.7
2023-03-08T09:50:39.914Z,942.7
2023-03-08T09:52:52.236Z,942.6
2023-03-08T09:53:58.233Z,942.6
2023-03-08T09:55:04.439Z,942.7
2023-03-08T09:56:10.477Z,942.6
2023-03-08T09:57:16.624Z,942.6
2023-03-08T09:58:22.864Z,942.5
2023-03-08T09:59:28.957Z,942.5
2023-03-08T10:01:41.224Z,942.5
2023-03-08T10:04:59.600Z,942.5
2023-03-08T10:06:04.812Z,942.5
2023-03-08T10:07:10.906Z,942.5
2023-03-08T10:08:17.046Z,942.6
2023-03-08T10:09:23.172Z,942.6
2023-03-08T10:11:35.577Z,942.7
2023-03-08T10:12:41.593Z,942.7
2023-03-08T10:13:47.897Z,942.7
2023-03-08T10:14:53.990Z,942.7
2023-03-08T10:16:00.031Z,942.6
2023-03-08T10:17:06.179Z,942.7
2023-03-08T10:21:30.748Z,942.8
2023-03-08T10:22:36.951Z,942.8
2023-03-08T10:23:42.089Z,942.9
2023-03-08T10:24:48.211Z,942.8
2023-03-08T10:25:54.419Z,942.7
2023-03-08T10:28:06.663Z,942.7
2023-03-08T10:29:12.811Z,942.7
2023-03-08T10:31:25.061Z,942.7
2023-03-08T10:32:31.197Z,942.8
2023-03-08T10:34:43.536Z,942.8
2023-03-08T10:36:55.968Z,942.7
2023-03-08T10:38:01.039Z,942.7
2023-03-08T10:39:07.153Z,942.8
2023-03-08T10:40:13.264Z,942.7
2023-03-08T10:41:19.416Z,942.7
2023-03-08T10:42:25.520Z,942.8
2023-03-08T10:43:31.639Z,942.6
2023-03-08T10:44:37.812Z,942.7
2023-03-08T10:45:44.048Z,942.7
2023-03-08T10:47:56.237Z,942.7
2023-03-08T10:49:02.385Z,942.6
2023-03-08T10:50:08.516Z,942.7
2023-03-08T10:51:14.681Z,942.6
2023-03-08T10:53:27.045Z,942.7
2023-03-08T10:54:32.228Z,942.7
2023-03-08T10:55:38.265Z,942.7
2023-03-08T10:56:44.383Z,942.7
2023-03-08T10:57:50.581Z,942.7
2023-03-08T10:58:56.680Z,942.7
2023-03-08T11:00:02.819Z,942.8
2023-03-08T11:01:08.971Z,942.6
2023-03-08T11:02:15.124Z,942.7
2023-03-08T11:03:21.241Z,942.7
2023-03-08T11:04:27.424Z,942.7
2023-03-08T11:05:33.551Z,942.6
2023-03-08T11:06:39.719Z,942.7
2023-03-08T11:07:45.819Z,942.7
2023-03-08T11:09:57.192Z,942.6
2023-03-08T11:11:03.300Z,942.6
2023-03-08T11:12:09.408Z,942.7
2023-03-08T11:13:15.562Z,942.6
2023-03-08T11:15:27.971Z,942.6
2023-03-08T11:16:34.103Z,942.7
2023-03-08T11:17:40.230Z,942.7
2023-03-08T11:18:46.450Z,942.7
2023-03-08T11:19:52.561Z,942.7
2023-03-08T11:20:58.550Z,942.7
2023-03-08T11:22:04.714Z,942.7
2023-03-08T11:23:09.975Z,942.7
2023-03-08T11:24:16.061Z,942.8
2023-03-08T11:26:28.370Z,942.7
2023-03-08T11:27:34.444Z,942.7
2023-03-08T11:28:40.683Z,942.8
2023-03-08T11:29:46.709Z,942.8
2023-03-08T11:30:52.871Z,942.8
2023-03-08T11:31:58.998Z,942.8
2023-03-08T11:33:05.183Z,942.8
2023-03-08T11:34:11.282Z,942.9
2023-03-08T11:35:17.459Z,942.8
2023-03-08T11:36:23.633Z,942.8
2023-03-08T11:37:28.733Z,942.9
2023-03-08T11:38:33.922Z,942.8
2023-03-08T11:39:40.185Z,942.9
2023-03-08T11:40:46.364Z,942.9
2023-03-08T11:42:58.635Z,942.9
2023-03-08T11:44:04.741Z,942.9
2023-03-08T11:45:10.909Z,942.9
2023-03-08T11:46:17.051Z,942.9
2023-03-08T11:47:23.176Z,942.9
2023-03-08T11:48:29.331Z,942.9
2023-03-08T11:49:35.462Z,942.9
2023-03-08T11:50:41.594Z,942.9
2023-03-08T11:51:47.816Z,942.9
2023-03-08T11:52:53.895Z,942.9
2023-03-08T11:54:00.048Z,943
2023-03-08T11:55:05.191Z,942.9
2023-03-08T11:56:11.329Z,942.8
2023-03-08T11:57:17.471Z,942.8
2023-03-08T11:59:29.762Z,942.8
2023-03-08T12:00:34.936Z,942.8
2023-03-08T12:01:40.102Z,942.9
2023-03-08T12:02:46.245Z,942.9
2023-03-08T12:03:52.384Z,942.9
2023-03-08T12:04:58.532Z,943
2023-03-08T12:06:04.720Z,942.9
2023-03-08T12:07:10.845Z,942.9
2023-03-08T12:08:17.052Z,942.9
2023-03-08T12:09:23.296Z,943
2023-03-08T12:10:29.263Z,943.1
2023-03-08T12:11:35.390Z,943
2023-03-08T12:12:40.589Z,943.1
2023-03-08T12:13:45.744Z,943
2023-03-08T12:15:58.024Z,943
2023-03-08T12:17:04.144Z,943
2023-03-08T12:18:10.293Z,943
2023-03-08T12:19:16.439Z,942.9
2023-03-08T12:21:28.731Z,942.9
2023-03-08T12:22:34.859Z,942.9
2023-03-08T12:23:41.058Z,942.9
2023-03-08T12:24:47.143Z,943
2023-03-08T12:25:53.299Z,942.9
2023-03-08T12:26:58.469Z,943
2023-03-08T12:28:03.622Z,943
2023-03-08T12:29:09.781Z,942.9
2023-03-08T12:30:15.916Z,942.9
2023-03-08T12:32:28.257Z,942.9
2023-03-08T12:33:34.337Z,942.9
2023-03-08T12:34:40.497Z,942.9
2023-03-08T12:35:46.626Z,942.9
2023-03-08T12:36:52.878Z,942.9
2023-03-08T12:37:59.133Z,943
2023-03-08T12:39:05.227Z,942.9
2023-03-08T12:40:11.378Z,943
2023-03-08T12:41:17.431Z,942.9
2023-03-08T12:42:22.506Z,942.9
2023-03-08T12:43:28.665Z,942.9
2023-03-08T12:44:34.791Z,942.9
2023-03-08T12:52:18.093Z,942.7
2023-03-08T12:53:23.998Z,942.7
2023-03-08T12:54:30.127Z,942.7
2023-03-08T12:57:48.590Z,942.6
2023-03-08T12:58:53.688Z,942.6
2023-03-08T12:59:59.814Z,942.6
2023-03-08T13:01:05.954Z,942.6
2023-03-08T13:02:12.110Z,942.6
2023-03-08T13:05:30.530Z,942.5
2023-03-08T13:06:36.676Z,942.5
2023-03-08T13:07:42.834Z,942.5
2023-03-08T13:08:48.969Z,942.4
2023-03-08T13:09:55.106Z,942.4
2023-03-08T13:11:01.279Z,942.4
2023-03-08T13:12:07.400Z,942.5
2023-03-08T13:13:12.553Z,942.4
2023-03-08T13:14:18.691Z,942.4
2023-03-08T13:15:24.936Z,942.4
2023-03-08T13:16:30.996Z,942.4
2023-03-08T13:17:37.126Z,942.5
2023-03-08T13:18:43.271Z,942.4
2023-03-08T13:22:01.699Z,942.3
2023-03-08T13:23:08.012Z,942.4
2023-03-08T13:24:13.993Z,942.4
2023-03-08T13:25:20.163Z,942.4
2023-03-08T13:26:26.338Z,942.4
2023-03-08T13:27:31.505Z,942.4
2023-03-08T13:28:37.577Z,942.3
2023-03-08T13:29:43.788Z,942.3
2023-03-08T13:30:49.879Z,942.3
2023-03-08T13:31:56.030Z,942.4
2023-03-08T13:33:02.154Z,942.4
2023-03-08T13:35:14.430Z,942.4
2023-03-08T13:36:20.585Z,942.5
2023-03-08T13:38:32.873Z,942.5
2023-03-08T13:39:39.045Z,942.5
2023-03-08T13:40:45.148Z,942.5
2023-03-08T13:41:50.351Z,942.6
2023-03-08T13:42:56.449Z,942.5
2023-03-08T13:44:02.599Z,942.6
2023-03-08T13:45:08.754Z,942.5
2023-03-08T13:46:14.885Z,942.5
2023-03-08T13:47:21.026Z,942.4
2023-03-08T13:48:27.168Z,942.4
2023-03-08T13:49:33.352Z,942.4
2023-03-08T13:50:39.536Z,942.4
2023-03-08T13:51:45.598Z,942.5
2023-03-08T13:55:04.138Z,942.3
2023-03-08T13:56:09.217Z,942.2
2023-03-08T13:57:15.326Z,942.2
2023-03-08T13:58:21.526Z,942.1
2023-03-08T13:59:27.656Z,942.1
2023-03-08T14:00:33.865Z,942.2
2023-03-08T14:01:39.910Z,942.2
2023-03-08T14:02:46.044Z,942.2
2023-03-08T14:03:52.288Z,942.1
2023-03-08T14:04:58.328Z,942.1
2023-03-08T14:06:04.529Z,942
2023-03-08T14:07:10.619Z,942
2023-03-08T14:08:16.769Z,941.9
2023-03-08T14:09:22.918Z,941.9
2023-03-08T14:11:34.224Z,941.8
2023-03-08T14:12:40.352Z,941.8
2023-03-08T14:13:46.490Z,941.9
2023-03-08T14:15:58.795Z,941.8
2023-03-08T14:17:04.921Z,941.8
2023-03-08T14:18:11.076Z,941.8
2023-03-08T14:19:17.229Z,941.9
2023-03-08T14:20:23.390Z,941.9
2023-03-08T14:21:29.500Z,941.8
2023-03-08T14:23:41.850Z,941.8
2023-03-08T14:24:46.944Z,941.8
2023-03-08T14:25:53.078Z,941.8
2023-03-08T14:28:05.365Z,941.8
2023-03-08T14:29:11.520Z,941.8
2023-03-08T14:31:23.803Z,941.7
2023-03-08T14:32:29.949Z,941.7
2023-03-08T14:33:36.094Z,941.7
2023-03-08T14:34:42.232Z,941.7
2023-03-08T14:38:00.666Z,941.7
2023-03-08T14:39:05.826Z,941.8
2023-03-08T14:40:11.965Z,941.8
2023-03-08T14:41:18.117Z,941.7
2023-03-08T14:42:24.255Z,941.6
2023-03-08T14:44:36.541Z,941.6
2023-03-08T14:45:42.725Z,941.5
2023-03-08T14:46:48.817Z,941.6
2023-03-08T14:47:54.964Z,941.6
2023-03-08T14:49:01.100Z,941.6
2023-03-08T14:50:07.252Z,941.6
2023-03-08T14:53:25.679Z,941.8
2023-03-08T14:54:30.983Z,941.8
2023-03-08T14:55:36.970Z,941.7
2023-03-08T14:56:43.122Z,941.6
2023-03-08T14:57:49.335Z,941.7
2023-03-08T14:58:55.505Z,941.6
2023-03-08T15:02:13.835Z,941.4
2023-03-08T15:03:19.979Z,941.5
2023-03-08T15:05:32.270Z,941.4
2023-03-08T15:06:38.409Z,941.3
2023-03-08T15:07:44.573Z,941.2
2023-03-08T15:09:55.944Z,941.2
2023-03-08T15:11:02.064Z,941.2
2023-03-08T15:12:08.161Z,941.2
2023-03-08T15:13:14.306Z,941.2
2023-03-08T15:14:20.426Z,941.3
2023-03-08T15:15:26.649Z,941.3
2023-03-08T15:17:38.859Z,941.4
2023-03-08T15:18:45.001Z,941.3
2023-03-08T15:19:51.145Z,941.4
2023-03-08T15:20:57.285Z,941.4
2023-03-08T15:22:03.442Z,941.3
2023-03-08T15:23:08.593Z,941.3
2023-03-08T15:24:14.739Z,941.3
2023-03-08T15:25:20.879Z,941.2
2023-03-08T15:26:27.136Z,941.2
2023-03-08T15:27:33.162Z,941.1
2023-03-08T15:28:39.296Z,941.2
2023-03-08T15:29:45.515Z,941.3
2023-03-08T15:30:51.602Z,941.2
2023-03-08T15:31:57.747Z,941.2
2023-03-08T15:34:09.052Z,941.3
2023-03-08T15:35:14.206Z,941.3
2023-03-08T15:36:20.351Z,941.2
2023-03-08T15:37:26.499Z,941.2
2023-03-08T15:39:38.777Z,941.3
2023-03-08T15:40:45.000Z,941.3
2023-03-08T15:41:50.103Z,941.3
2023-03-08T15:42:56.228Z,941.2
2023-03-08T15:44:02.379Z,941.1
2023-03-08T15:45:08.521Z,941.1
2023-03-08T15:46:14.660Z,941.1
2023-03-08T15:47:20.797Z,941.2
2023-03-08T15:48:26.981Z,941.2
2023-03-08T15:51:45.494Z,941.2
2023-03-08T15:52:51.629Z,941.2
2023-03-08T15:55:03.920Z,941.3
2023-03-08T15:56:09.146Z,941.3
2023-03-08T15:57:15.305Z,941.3
2023-03-08T15:58:21.422Z,941.3
2023-03-08T15:59:27.609Z,941.3
2023-03-08T16:00:33.645Z,941.3
2023-03-08T16:01:39.797Z,941.4
2023-03-08T16:02:45.938Z,941.4
2023-03-08T16:04:58.223Z,941.3
2023-03-08T16:07:10.533Z,941.4
2023-03-08T16:08:16.658Z,941.4
2023-03-08T16:09:22.798Z,941.4
2023-03-08T16:10:28.049Z,941.4
2023-03-08T16:11:34.104Z,941.5
2023-03-08T16:12:40.250Z,941.6
2023-03-08T16:14:52.536Z,941.6
2023-03-08T16:15:58.672Z,941.5
2023-03-08T16:19:17.114Z,941.5
2023-03-08T16:20:23.250Z,941.5
2023-03-08T16:21:29.418Z,941.5
2023-03-08T16:24:47.949Z,941.6
2023-03-08T16:26:59.128Z,941.5
2023-03-08T16:28:05.343Z,941.6
2023-03-08T16:29:11.445Z,941.6
2023-03-08T16:30:17.572Z,941.5
2023-03-08T16:31:23.758Z,941.5
2023-03-08T16:32:29.846Z,941.5
2023-03-08T16:33:36.013Z,941.5
2023-03-08T16:34:42.135Z,941.6
2023-03-08T16:35:48.285Z,941.5
2023-03-08T16:36:54.458Z,941.5
2023-03-08T16:40:12.882Z,941.5
2023-03-08T16:41:18.048Z,941.5